Nearby METAR Reports

 

KVCT - Victoria, Texas, USA
Distance from station: E 12mi, 20km
Updated: 10/21/2019 12:58am
Overcast
Overcast
 Wind from S
Wind: S 14 mph , 22 km/h
Temperature: 82°F , 28°C
Heat Index: 90°F , 32°C
Dew Point: 77°F , 25°C
Humidity: 84%
Barometer: 29.73 inHg , 1006.8 hPa
Clouds: Overcast
Visibility: 9 miles , 14 km
Cloud details: Few Clouds 1300 ft
Mostly cloudy 4700 ft
Overcast 5500 ft
2019/10/21 05:58 KVCT 210558Z AUTO 18012KT 9SM FEW013 BKN047 OVC055 28/25 A2973 RMK AO2 T02780250
KPKV - Port Lavaca, Texas, USA
Distance from station: ESE 31mi, 50km
Updated: 10/21/2019 12:55am
Mostly cloudy
Mostly cloudy
 Wind from S
Wind: S 10 mph , 17 km/h
Temperature: 82°F , 28°C
Heat Index: 93°F , 34°C
Dew Point: 81°F , 27°C
Humidity: 94%
Barometer: 29.74 inHg , 1007.1 hPa
Clouds: Mostly cloudy
Visibility: 7 miles , 11 km
Cloud details: Partly cloudy 1700 ft
Mostly cloudy 5000 ft
Mostly cloudy 7000 ft
2019/10/21 05:55 KPKV 210555Z AUTO 17009KT 7SM SCT017 BKN050 BKN070 28/27 A2974 RMK AO2 T02840265 10288 20280 403320230
 
KT20 - Gonzales Muni, Texas, USA
Distance from station: NNW 50mi, 81km
Updated: 10/21/2019 12:55am
Overcast
Overcast
 Wind from S
Wind: S 10 mph , 17 km/h, Gust: 17 mph , 28 km/h
Temperature: 81°F , 27°C
Heat Index: 88°F , 31°C
Dew Point: 77°F , 25°C
Humidity: 89%
Barometer: 29.71 inHg , 1006.1 hPa
Clouds: Overcast
Visibility: 10 miles , 16 km
Cloud details: Overcast 1300 ft
2019/10/21 05:55 KT20 210555Z AUTO 18009G15KT 10SM OVC013 27/25 A2971 RMK AO2 T02680251 10293 20267 403390220
KBEA - Beeville Muni, Texas, USA
Distance from station: SW 51mi, 83km
Updated: 10/21/2019 12:55am
Overcast
Overcast
 Wind from S
Wind: S 15 mph , 24 km/h, Gust: 22 mph , 35 km/h
Temperature: 84°F , 29°C
Heat Index: 96°F , 36°C
Dew Point: 79°F , 26°C
Humidity: 84%
Barometer: 29.72 inHg , 1006.4 hPa
Clouds: Overcast
Visibility: 10 miles , 16 km
Cloud details: Mostly cloudy 1600 ft
Overcast 2600 ft
2019/10/21 05:55 KBEA 210555Z AUTO 18013G19KT 10SM BKN016 OVC026 29/26 A2972 RMK AO2 LTG DSNT SE T02900255 10305 20285 403520246
 
KRKP - Rockport, Texas, USA
Distance from station: S 53mi, 86km
Updated: 10/21/2019 12:53am
Haze, Mostly cloudy
Haze, Mostly cloudy
 Wind from S
Wind: S 10 mph , 17 km/h
Temperature: 82°F , 28°C
Heat Index: 90°F , 32°C
Dew Point: 77°F , 25°C
Humidity: 84%
Barometer: 29.72 inHg , 1006.4 hPa
Summary: Haze
Clouds: Mostly cloudy
Visibility: 6 miles , 10 km
Cloud details: Mostly cloudy 1500 ft
Mostly cloudy 4800 ft
2019/10/21 05:53 KRKP 210553Z AUTO 17009KT 6SM HZ BKN015 BKN048 28/25 A2972 RMK AO2 SLP066 T02830250 10289 20283 403330267 58006
KPSX - Palacios, Texas, USA
Distance from station: E 55mi, 88km
Updated: 10/21/2019 12:53am
Mostly cloudy
Mostly cloudy
 Wind from S
Wind: S 12 mph , 19 km/h
Temperature: 81°F , 27°C
Heat Index: 87°F , 31°C
Dew Point: 75°F , 24°C
Humidity: 84%
Barometer: 29.73 inHg , 1006.8 hPa
Clouds: Mostly cloudy
Visibility: 7 miles , 11 km
Cloud details: Partly cloudy 1900 ft
Mostly cloudy 2500 ft
2019/10/21 05:53 KPSX 210553Z AUTO 17010KT 7SM SCT019 BKN025 27/24 A2973 RMK AO2 SLP068 T02720244 10278 20272 403110233 58005
 
KTFP - Ingleside/Tp Mcc, Texas, USA
Distance from station: S 65mi, 104km
Updated: 10/21/2019 12:55am
Partly cloudy
Partly cloudy
 Wind from S
Wind: S 13 mph , 20 km/h
Temperature: 82°F , 28°C
Heat Index: 93°F , 34°C
Dew Point: 81°F , 27°C
Humidity: 94%
Barometer: 29.73 inHg , 1006.8 hPa
Clouds: Partly cloudy
Visibility: 10 miles , 16 km
Cloud details: Partly cloudy 800 ft
Partly cloudy 4300 ft
2019/10/21 05:55 KTFP 210555Z AUTO 19011KT 10SM SCT008 SCT043 28/27 A2973 RMK AO2 LTG DSNT E AND S T02800265 PNO
K66R - Columbus, Texas, USA
Distance from station: NE 66mi, 106km
Updated: 10/21/2019 12:55am
Rain, Overcast
Rain, Overcast
 Wind from S
Wind: S 12 mph , 19 km/h
Temperature: 77°F , 25°C
Dew Point: 73°F , 23°C
Humidity: 89%
Barometer: 29.73 inHg , 1006.8 hPa
Summary: Rain
Clouds: Overcast
Visibility: 10 miles , 16 km
Cloud details: Overcast 1000 ft
2019/10/21 05:55 K66R 210555Z AUTO 18010KT 10SM RA OVC010 25/23 A2973 RMK AO2 T02460225 10265 20246 403240187
 
KARM - Wharton, Texas, USA
Distance from station: ENE 66mi, 106km
Updated: 10/21/2019 12:55am
Mostly cloudy
Mostly cloudy
 Wind from SSE
Wind: SSE 8 mph , 13 km/h
Temperature: 79°F , 26°C
Dew Point: 75°F , 24°C
Humidity: 89%
Barometer: 29.75 inHg , 1007.5 hPa
Clouds: Mostly cloudy
Visibility: 10 miles , 16 km
Cloud details: Partly cloudy 1500 ft
Partly cloudy 2400 ft
Mostly cloudy 6500 ft
2019/10/21 05:55 KARM 210555Z AUTO 16007KT 10SM SCT015 SCT024 BKN065 26/24 A2975 RMK AO2 T02600237 10272 20258 403210225
KRAS - Port Aransas, Texas, USA
Distance from station: S 71mi, 115km
Updated: 10/21/2019 12:55am
Partly cloudy
Partly cloudy
 Wind from SSE
Wind: SSE 13 mph , 20 km/h
Temperature: 81°F , 27°C
Heat Index: 89°F , 32°C
Dew Point: 79°F , 26°C
Humidity: 94%
Barometer: 29.74 inHg , 1007.1 hPa
Clouds: Partly cloudy
Visibility: 10 miles , 16 km
Cloud details: Partly cloudy 4500 ft
Partly cloudy 7000 ft
2019/10/21 05:55 KRAS 210555Z AUTO 16011KT 10SM SCT045 SCT070 27/26 A2974 RMK AO2 LTG DSNT E AND S T02750259 10279 20275
 
KELA - Eagle Lake, Texas, USA
Distance from station: NE 72mi, 115km
Updated: 10/21/2019 12:55am
Overcast
Overcast
 Wind from S
Wind: S 12 mph , 19 km/h, Gust: 17 mph , 28 km/h
Temperature: 81°F , 27°C
Heat Index: 89°F , 32°C
Dew Point: 79°F , 26°C
Humidity: 94%
Barometer: 29.72 inHg , 1006.4 hPa
Clouds: Overcast
Visibility: 10 miles , 16 km
Cloud details: Overcast 1100 ft
2019/10/21 05:55 KELA 210555Z AUTO 17010G15KT 10SM OVC011 27/26 A2972 RMK AO2 T02710258 10290 20270 403450225
K3T5 - La Grange, Texas, USA
Distance from station: N 73mi, 118km
Updated: 10/21/2019 12:55am
Overcast
Overcast
 Wind from SSW
Wind: SSW 12 mph , 19 km/h, Gust: 16 mph , 26 km/h
Temperature: 82°F , 28°C
Heat Index: 91°F , 33°C
Dew Point: 79°F , 26°C
Humidity: 89%
Barometer: 29.70 inHg , 1005.8 hPa
Clouds: Overcast
Visibility: 10 miles , 16 km
Cloud details: Overcast 1600 ft
2019/10/21 05:55 K3T5 210555Z AUTO 20010G14KT 10SM OVC016 28/26 A2970 RMK AO2 T02760256 10301 20273 403490217
 
KBYY - Bay City, Texas, USA
Distance from station: E 77mi, 124km
Updated: 10/21/2019 12:55am
Mostly cloudy
Mostly cloudy
 Wind from S
Wind: S 9 mph , 15 km/h
Temperature: 81°F , 27°C
Heat Index: 89°F , 32°C
Dew Point: 79°F , 26°C
Humidity: 94%
Barometer: 29.74 inHg , 1007.1 hPa
Clouds: Mostly cloudy
Visibility: 10 miles , 16 km
Cloud details: Mostly cloudy 1700 ft
Mostly cloudy 2200 ft
Mostly cloudy 11000 ft
2019/10/21 05:55 KBYY 210555Z AUTO 17008KT 10SM BKN017 BKN022 BKN110 27/26 A2974 RMK AO2 T02760262
KCRP - Corpus Christi, Texas, USA
Distance from station: SSW 78mi, 126km
Updated: 10/21/2019 12:51am
Light rain, Overcast
Light rain, Overcast
 Wind from S
Wind: S 17 mph , 28 km/h
Temperature: 82°F , 28°C
Heat Index: 91°F , 33°C
Dew Point: 79°F , 26°C
Humidity: 89%
Barometer: 29.72 inHg , 1006.4 hPa
Summary: Light rain
Clouds: Overcast
Visibility: 10 miles , 16 km
Cloud details: Mostly cloudy 1400 ft
Mostly cloudy 3200 ft
Overcast 6000 ft
2019/10/21 05:51 KCRP 210551Z 17015KT 10SM -RA BKN014 BKN032 OVC060 28/26 A2972 RMK AO2 RAB47 SLP063 P0000 60000 T02830256 10289 20283 403330233 58004
 
KNGP - C. Christi Nas, Texas, USA
Distance from station: S 81mi, 130km
Updated: 10/21/2019 12:56am
Mostly cloudy
Mostly cloudy
 Wind from S
Wind: S 15 mph , 24 km/h, Gust: 21 mph , 33 km/h
Temperature: 81°F , 27°C
Heat Index: 91°F , 33°C
Dew Point: 81°F , 27°C
Humidity: 100%
Barometer: 29.72 inHg , 1006.4 hPa
Clouds: Mostly cloudy
Visibility: 9 miles , 14 km
Cloud details: Partly cloudy 1100 ft
Mostly cloudy 1800 ft
Mostly cloudy 2400 ft
2019/10/21 05:56 KNGP 210556Z AUTO 17013G18KT 9SM SCT011 BKN018 BKN024 27/27 A2972 RMK AO2 CIG 011 SLP063 T02720272 10283 20272 403110256 58004
KRBO - Robstown/Nueces, Texas, USA
Distance from station: SSW 81mi, 130km
Updated: 10/21/2019 12:50am
Partly cloudy
Partly cloudy
 Wind from S
Wind: S 12 mph , 19 km/h
Temperature: 82°F , 28°C
Heat Index: 90°F , 32°C
Dew Point: 77°F , 25°C
Humidity: 84%
Barometer: 29.73 inHg , 1006.8 hPa
Clouds: Partly cloudy
Visibility: 10 miles , 16 km
Cloud details: Partly cloudy 1600 ft
Partly cloudy 2100 ft
Partly cloudy 2700 ft
2019/10/21 05:50 KRBO 210550Z AUTO 18010KT 10SM SCT016 SCT021 SCT027 28/25 A2973 RMK AO2 LTG DSNT SE T02770250 10285 20276 403300240
 
KBAZ - New Braunfels, Texas, USA
Distance from station: NW 81mi, 131km
Updated: 10/21/2019 12:51am
Mostly cloudy
Mostly cloudy
 Wind from S
Wind: S 16 mph , 26 km/h
Temperature: 81°F , 27°C
Heat Index: 86°F , 30°C
Dew Point: 73°F , 23°C
Humidity: 79%
Barometer: 29.72 inHg , 1006.4 hPa
Clouds: Mostly cloudy
Visibility: 10 miles , 16 km
Cloud details: Mostly cloudy 2000 ft
Mostly cloudy 3500 ft
2019/10/21 05:51 KBAZ 210551Z AUTO 19014KT 10SM BKN020 BKN035 27/23 A2972 RMK AO2 SLP052 T02670233 10306 20267 403440228 50001
KRND - Randolph Afb, Texas, USA
Distance from station: NW 82mi, 132km
Updated: 10/21/2019 12:56am
Overcast
Overcast
 Wind from S
Wind: S 13 mph , 20 km/h
Temperature: 79°F , 26°C
Dew Point: 75°F , 24°C
Humidity: 89%
Barometer: 29.73 inHg , 1006.8 hPa
Clouds: Overcast
Visibility: 10 miles , 16 km
Cloud details: Overcast 1400 ft
2019/10/21 05:56 KRND 210556Z AUTO 18011KT 10SM OVC014 26/24 A2973 RMK AO2 CIG 013 RWY15R CIG 013 RWY33R SLP058 T02610235 10301 20261 403320212 50002
 
KHYI - San Marcos, Texas, USA
Distance from station: NNW 84mi, 135km
Updated: 10/21/2019 12:56am
Overcast
Overcast
 Wind from S
Wind: S 15 mph , 24 km/h
Temperature: 81°F , 27°C
Heat Index: 86°F , 30°C
Dew Point: 73°F , 23°C
Humidity: 79%
Barometer: 29.73 inHg , 1006.8 hPa
Clouds: Overcast
Visibility: 10 miles , 16 km
Cloud details: Overcast 1800 ft
2019/10/21 05:56 KHYI 210556Z 18013KT 10SM OVC018 27/23 A2973 RMK AO2 SLP056 T02670233 10283 20261 403440222 58005
KPEZ - Pleasanton Muni, Texas, USA
Distance from station: W 84mi, 135km
Updated: 10/21/2019 12:55am
Overcast
Overcast
 Wind from SSE
Wind: SSE 6 mph , 9 km/h
Temperature: 79°F , 26°C
Dew Point: 73°F , 23°C
Humidity: 84%
Barometer: 29.72 inHg , 1006.4 hPa
Clouds: Overcast
Visibility: 10 miles , 16 km
Cloud details: Overcast 1900 ft
2019/10/21 05:55 KPEZ 210555Z AUTO 15005KT 10SM OVC019 26/23 A2972 RMK AO2 T02580230 10303 20257 403390211